createdAt,value
2022-09-23T00:01:08.960Z,6.07
2022-09-23T00:03:38.443Z,6.00
2022-09-23T00:06:08.178Z,5.97
2022-09-23T00:08:35.280Z,5.93
2022-09-23T00:11:15.123Z,5.96
2022-09-23T00:13:44.508Z,6.00
2022-09-23T00:16:14.331Z,5.90
2022-09-23T00:18:42.029Z,5.83
2022-09-23T00:21:12.317Z,5.90
2022-09-23T00:23:40.607Z,5.86
2022-09-23T00:26:08.945Z,5.85
2022-09-23T00:28:36.516Z,5.83
2022-09-23T00:31:12.632Z,5.85
2022-09-23T00:33:40.805Z,5.91
2022-09-23T00:36:11.986Z,5.89
2022-09-23T00:38:39.269Z,5.96
2022-09-23T00:41:06.464Z,5.92
2022-09-23T00:43:53.792Z,5.91
2022-09-23T00:46:43.663Z,5.99
2022-09-23T00:49:21.873Z,5.87
2022-09-23T00:51:55.288Z,5.82
2022-09-23T00:54:26.327Z,5.75
2022-09-23T00:56:54.238Z,5.74
2022-09-23T00:59:21.806Z,5.65
2022-09-23T01:01:50.036Z,5.67
2022-09-23T01:04:16.693Z,5.64
2022-09-23T01:06:43.248Z,5.57
2022-09-23T01:09:09.852Z,5.62
2022-09-23T01:11:43.901Z,5.54
2022-09-23T01:14:16.721Z,5.56
2022-09-23T01:16:45.895Z,5.70
2022-09-23T01:19:27.730Z,5.65
2022-09-23T01:22:01.359Z,5.63
2022-09-23T01:24:46.725Z,5.63
2022-09-23T01:27:20.440Z,5.56
2022-09-23T01:30:05.771Z,5.42
2022-09-23T01:32:46.967Z,5.39
2022-09-23T01:35:25.943Z,5.44
2022-09-23T01:38:06.553Z,5.46
2022-09-23T01:41:08.916Z,5.45
2022-09-23T01:44:05.720Z,5.40
2022-09-23T01:46:48.360Z,5.35
2022-09-23T01:49:33.180Z,5.40
2022-09-23T01:52:07.812Z,5.45
2022-09-23T01:54:42.396Z,5.39
2022-09-23T01:57:22.739Z,5.44
2022-09-23T02:00:08.909Z,5.45
2022-09-23T02:02:49.926Z,5.40
2022-09-23T02:05:26.047Z,5.31
2022-09-23T02:08:03.258Z,5.23
2022-09-23T02:10:37.470Z,5.23
2022-09-23T02:13:09.932Z,5.34
2022-09-23T02:15:46.861Z,5.35
2022-09-23T02:18:18.524Z,5.30
2022-09-23T02:20:47.417Z,5.21
2022-09-23T02:23:27.885Z,5.20
2022-09-23T02:26:07.459Z,5.15
2022-09-23T02:28:52.499Z,5.14
2022-09-23T02:31:34.274Z,5.09
2022-09-23T02:34:24.126Z,5.06
2022-09-23T02:37:08.095Z,5.03
2022-09-23T02:39:51.693Z,4.99
2022-09-23T02:42:24.940Z,4.96
2022-09-23T02:44:51.615Z,4.92
2022-09-23T02:47:24.205Z,4.90
2022-09-23T02:49:50.809Z,4.82
2022-09-23T02:52:17.450Z,4.81
2022-09-23T02:54:44.344Z,4.75
2022-09-23T02:57:10.878Z,4.72
2022-09-23T02:59:38.492Z,4.72
2022-09-23T03:02:13.661Z,4.67
2022-09-23T03:05:03.915Z,4.66
2022-09-23T03:07:50.002Z,4.63
2022-09-23T03:10:25.776Z,4.60
2022-09-23T03:13:04.864Z,4.59
2022-09-23T03:15:53.584Z,4.59
2022-09-23T03:18:44.958Z,4.69
2022-09-23T03:21:17.395Z,4.72
2022-09-23T03:23:46.531Z,4.72
2022-09-23T03:26:20.182Z,4.70
2022-09-23T03:28:47.561Z,4.68
2022-09-23T03:31:16.291Z,4.70
2022-09-23T03:33:50.298Z,4.77
2022-09-23T03:36:40.165Z,4.74
2022-09-23T03:39:10.544Z,4.69
2022-09-23T03:41:49.330Z,4.68
2022-09-23T03:44:17.231Z,4.68
2022-09-23T03:46:49.959Z,4.67
2022-09-23T03:49:22.985Z,4.62
2022-09-23T03:51:50.037Z,4.62
2022-09-23T03:54:17.757Z,4.61
2022-09-23T03:56:44.243Z,4.63
2022-09-23T03:59:10.798Z,4.64
2022-09-23T04:01:37.307Z,4.66
2022-09-23T04:04:03.950Z,4.61
2022-09-23T04:06:30.570Z,4.67
2022-09-23T04:08:58.479Z,4.70
2022-09-23T04:11:25.028Z,4.78
2022-09-23T04:13:51.582Z,4.84
2022-09-23T04:16:18.214Z,4.86
2022-09-23T04:18:45.028Z,4.90
2022-09-23T04:21:11.707Z,4.89
2022-09-23T04:23:38.228Z,4.88
2022-09-23T04:26:05.775Z,4.88
2022-09-23T04:28:32.719Z,4.93
2022-09-23T04:30:59.402Z,5.03
2022-09-23T04:33:26.046Z,5.05
2022-09-23T04:35:52.881Z,5.10
2022-09-23T04:38:19.906Z,5.13
2022-09-23T04:40:46.764Z,5.12
2022-09-23T04:43:15.972Z,5.14
2022-09-23T04:45:43.778Z,5.13
2022-09-23T04:48:11.561Z,5.15
2022-09-23T04:50:38.330Z,5.10
2022-09-23T04:53:05.100Z,5.05
2022-09-23T04:55:32.088Z,5.02
2022-09-23T04:57:58.910Z,4.96
2022-09-23T05:00:28.604Z,4.97
2022-09-23T05:02:55.530Z,4.99
2022-09-23T05:05:23.699Z,5.02
2022-09-23T05:07:51.305Z,5.04
2022-09-23T05:10:17.942Z,5.05
2022-09-23T05:12:46.655Z,5.07
2022-09-23T05:15:15.215Z,5.11
2022-09-23T05:17:43.106Z,5.10
2022-09-23T05:20:11.132Z,5.18
2022-09-23T05:22:37.899Z,5.24
2022-09-23T05:25:04.732Z,5.26
2022-09-23T05:27:31.392Z,5.30
2022-09-23T05:29:58.006Z,5.28
2022-09-23T05:32:24.597Z,5.31
2022-09-23T05:34:51.159Z,5.34
2022-09-23T05:37:17.665Z,5.37
2022-09-23T05:39:44.570Z,5.41
2022-09-23T05:42:12.395Z,5.46
2022-09-23T05:44:39.357Z,5.43
2022-09-23T05:47:06.168Z,5.40
2022-09-23T05:49:55.179Z,5.44
2022-09-23T05:52:19.354Z,5.49
2022-09-23T05:54:46.089Z,5.52
2022-09-23T05:57:12.698Z,5.57
2022-09-23T05:59:39.813Z,5.58
2022-09-23T06:02:06.791Z,5.59
2022-09-23T06:04:33.440Z,5.62
2022-09-23T06:07:03.367Z,5.64
2022-09-23T06:09:35.545Z,5.66
2022-09-23T06:12:03.632Z,5.70
2022-09-23T06:14:30.376Z,5.74
2022-09-23T06:16:56.928Z,5.78
2022-09-23T06:19:23.573Z,5.78
2022-09-23T06:21:50.136Z,5.78
2022-09-23T06:24:20.405Z,5.83
2022-09-23T06:26:49.252Z,5.83
2022-09-23T06:29:16.254Z,5.86
2022-09-23T06:31:43.453Z,5.90
2022-09-23T06:34:13.383Z,5.91
2022-09-23T06:36:45.822Z,5.93
2022-09-23T06:39:16.799Z,5.96
2022-09-23T06:41:44.803Z,6.03
2022-09-23T06:44:11.657Z,6.10
2022-09-23T06:46:38.397Z,6.16
2022-09-23T06:49:04.970Z,6.22
2022-09-23T06:51:31.494Z,6.34
2022-09-23T06:53:58.207Z,6.51
2022-09-23T06:56:24.833Z,6.66
2022-09-23T06:58:52.622Z,6.79
2022-09-23T07:01:19.945Z,6.95
2022-09-23T07:03:48.430Z,7.14
2022-09-23T07:06:15.703Z,7.39
2022-09-23T07:08:44.922Z,7.65
2022-09-23T07:11:13.220Z,7.91
2022-09-23T07:13:41.273Z,8.11
2022-09-23T07:16:08.970Z,8.27
2022-09-23T07:18:37.342Z,8.43
2022-09-23T07:21:16.031Z,8.60
2022-09-23T07:23:44.298Z,8.77
2022-09-23T07:26:11.159Z,9.00
2022-09-23T07:28:38.743Z,9.22
2022-09-23T07:31:08.968Z,9.44
2022-09-23T07:33:36.856Z,9.65
2022-09-23T07:36:08.949Z,9.81
2022-09-23T07:38:37.425Z,9.96
2022-09-23T07:41:10.846Z,10.12
2022-09-23T07:43:38.678Z,10.17
2022-09-23T07:46:09.726Z,10.24
2022-09-23T07:48:37.458Z,10.28
2022-09-23T07:51:19.126Z,10.35
2022-09-23T07:53:51.307Z,10.39
2022-09-23T07:56:22.070Z,10.42
2022-09-23T07:59:03.726Z,10.53
2022-09-23T08:01:39.576Z,10.55
2022-09-23T08:04:10.876Z,10.56
2022-09-23T08:06:44.047Z,10.63
2022-09-23T08:09:11.300Z,10.74
2022-09-23T08:11:42.125Z,10.85
2022-09-23T08:14:13.926Z,11.01
2022-09-23T08:16:41.827Z,11.20
2022-09-23T08:19:08.908Z,11.29
2022-09-23T08:21:35.726Z,11.39
2022-09-23T08:24:02.563Z,11.60
2022-09-23T08:26:29.119Z,11.80
2022-09-23T08:28:56.531Z,11.92
2022-09-23T08:31:24.179Z,12.06
2022-09-23T08:33:55.760Z,12.28
2022-09-23T08:36:23.013Z,12.37
2022-09-23T08:38:49.556Z,12.58
2022-09-23T08:41:49.616Z,12.80
2022-09-23T08:44:37.991Z,12.96
2022-09-23T08:47:11.821Z,13.17
2022-09-23T08:49:44.499Z,13.34
2022-09-23T08:52:23.446Z,13.49
2022-09-23T08:54:55.124Z,13.60
2022-09-23T08:58:23.347Z,13.69
2022-09-23T09:00:47.556Z,13.76
2022-09-23T09:03:22.584Z,13.83
2022-09-23T09:05:54.458Z,13.83
2022-09-23T09:08:33.609Z,13.97
2022-09-23T09:11:00.960Z,13.91
2022-09-23T09:13:43.259Z,13.87
2022-09-23T09:16:36.351Z,13.87
2022-09-23T09:19:12.741Z,13.88
2022-09-23T09:21:42.624Z,13.88
2022-09-23T09:24:30.872Z,13.95
2022-09-23T09:26:57.466Z,14.07
2022-09-23T09:29:35.304Z,14.20
2022-09-23T09:32:19.107Z,14.31
2022-09-23T09:34:54.687Z,14.40
2022-09-23T09:37:37.426Z,14.32
2022-09-23T09:40:04.240Z,14.22
2022-09-23T09:42:39.947Z,14.10
2022-09-23T09:45:26.349Z,13.95
2022-09-23T09:48:15.031Z,13.90
2022-09-23T09:50:47.288Z,13.92
2022-09-23T09:53:29.552Z,14.06
2022-09-23T09:56:05.015Z,14.37
2022-09-23T09:58:44.355Z,14.52
2022-09-23T10:01:22.374Z,14.67
2022-09-23T10:03:56.946Z,14.85
2022-09-23T10:06:28.715Z,14.99
2022-09-23T10:09:04.676Z,15.12
2022-09-23T10:11:33.207Z,15.23
2022-09-23T10:14:00.383Z,15.49
2022-09-23T10:16:28.362Z,15.58
2022-09-23T10:18:57.011Z,15.69
2022-09-23T10:21:28.006Z,15.81
2022-09-23T10:23:58.631Z,15.87
2022-09-23T10:26:37.577Z,15.99
2022-09-23T10:29:23.183Z,15.94
2022-09-23T10:31:54.009Z,15.93
2022-09-23T10:34:27.474Z,16.05
2022-09-23T10:37:01.983Z,16.03
2022-09-23T10:39:47.494Z,16.04
2022-09-23T10:43:13.253Z,16.17
2022-09-23T10:45:59.661Z,16.16
2022-09-23T10:49:08.992Z,16.27
2022-09-23T10:52:19.734Z,16.23
2022-09-23T10:55:18.317Z,16.23
2022-09-23T10:57:45.116Z,16.24
2022-09-23T11:00:26.866Z,16.31
2022-09-23T11:03:12.487Z,16.18
2022-09-23T11:05:56.363Z,16.21
2022-09-23T11:08:36.462Z,16.13
2022-09-23T11:11:42.040Z,16.06
2022-09-23T11:14:20.783Z,16.05
2022-09-23T11:17:19.590Z,16.07
2022-09-23T11:20:26.317Z,16.14
2022-09-23T11:23:03.296Z,16.11
2022-09-23T11:25:58.095Z,16.07
2022-09-23T11:28:58.698Z,16.12
2022-09-23T11:31:40.558Z,16.08
2022-09-23T11:34:14.304Z,16.10
2022-09-23T11:36:52.379Z,15.99
2022-09-23T11:39:57.441Z,15.95
2022-09-23T11:42:32.922Z,16.12
2022-09-23T11:45:15.100Z,16.13
2022-09-23T11:47:57.111Z,16.09
2022-09-23T11:50:32.188Z,16.06
2022-09-23T11:53:09.227Z,16.04
2022-09-23T11:55:57.788Z,16.10
2022-09-23T11:58:32.251Z,16.13
2022-09-23T12:01:09.472Z,16.26
2022-09-23T12:03:44.711Z,16.42
2022-09-23T12:06:32.220Z,16.50
2022-09-23T12:09:12.750Z,16.68
2022-09-23T12:12:26.317Z,16.86
2022-09-23T12:15:21.131Z,16.99
2022-09-23T12:17:57.187Z,17.03
2022-09-23T12:20:35.825Z,17.18
2022-09-23T12:23:08.961Z,17.26
2022-09-23T12:25:50.142Z,17.35
2022-09-23T12:28:35.702Z,17.32
2022-09-23T12:31:04.892Z,17.43
2022-09-23T12:33:36.829Z,17.54
2022-09-23T12:36:08.650Z,17.45
2022-09-23T12:38:35.105Z,17.53
2022-09-23T12:41:08.985Z,17.48
2022-09-23T12:43:35.687Z,17.65
2022-09-23T12:46:25.733Z,17.64
2022-09-23T12:48:58.314Z,17.57
2022-09-23T12:51:26.907Z,17.74
2022-09-23T12:54:05.833Z,17.63
2022-09-23T12:56:38.962Z,17.56
2022-09-23T12:59:23.562Z,17.49
2022-09-23T13:01:50.290Z,17.47
2022-09-23T13:04:47.850Z,17.62
2022-09-23T13:07:23.169Z,17.55
2022-09-23T13:09:52.408Z,17.46
2022-09-23T13:12:29.612Z,17.49
2022-09-23T13:15:03.259Z,17.47
2022-09-23T13:17:37.332Z,17.51
2022-09-23T13:20:36.573Z,17.47
2022-09-23T13:23:06.072Z,17.50
2022-09-23T13:25:39.241Z,17.44
2022-09-23T13:28:19.447Z,17.50
2022-09-23T13:30:52.239Z,17.43
2022-09-23T13:33:39.019Z,17.33
2022-09-23T13:36:15.462Z,17.32
2022-09-23T13:38:42.195Z,17.34
2022-09-23T13:41:14.993Z,17.41
2022-09-23T13:44:03.515Z,17.40
2022-09-23T13:46:43.234Z,17.50
2022-09-23T13:49:24.472Z,17.45
2022-09-23T13:51:54.393Z,17.52
2022-09-23T13:54:49.106Z,17.53
2022-09-23T13:57:29.423Z,17.55
2022-09-23T14:00:16.484Z,17.42
2022-09-23T14:02:44.074Z,17.55
2022-09-23T14:05:14.187Z,17.47
2022-09-23T14:07:40.891Z,17.47
2022-09-23T14:10:08.248Z,17.54
2022-09-23T14:12:39.338Z,17.40
2022-09-23T14:15:07.226Z,17.33
2022-09-23T14:17:33.819Z,17.30
2022-09-23T14:20:01.115Z,17.24
2022-09-23T14:22:29.347Z,17.22
2022-09-23T14:24:57.492Z,17.17
2022-09-23T14:27:29.912Z,17.11
2022-09-23T14:29:57.284Z,17.03
2022-09-23T14:32:28.236Z,17.06
2022-09-23T14:35:00.960Z,17.08
2022-09-23T14:37:48.423Z,17.06
2022-09-23T14:40:25.490Z,17.05
2022-09-23T14:43:02.329Z,17.00
2022-09-23T14:45:36.376Z,17.00
2022-09-23T14:48:14.447Z,16.87
2022-09-23T14:50:48.485Z,16.92
2022-09-23T14:53:24.361Z,16.83
2022-09-23T14:55:57.439Z,16.76
2022-09-23T14:58:30.576Z,16.69
2022-09-23T15:01:01.335Z,16.65
2022-09-23T15:03:28.847Z,16.63
2022-09-23T15:06:05.132Z,16.56
2022-09-23T15:08:35.796Z,16.49
2022-09-23T15:11:08.353Z,16.46
2022-09-23T15:13:49.508Z,16.38
2022-09-23T15:16:24.281Z,16.31
2022-09-23T15:18:55.332Z,16.25
2022-09-23T15:21:23.332Z,16.22
2022-09-23T15:23:56.078Z,16.18
2022-09-23T15:26:25.794Z,16.20
2022-09-23T15:28:55.955Z,16.20
2022-09-23T15:31:26.650Z,16.18
2022-09-23T15:33:53.355Z,16.20
2022-09-23T15:36:21.458Z,16.19
2022-09-23T15:38:48.524Z,16.17
2022-09-23T15:41:17.169Z,16.14
2022-09-23T15:43:43.947Z,16.09
2022-09-23T15:46:25.453Z,16.11
2022-09-23T15:49:05.697Z,16.05
2022-09-23T15:51:32.354Z,16.01
2022-09-23T15:53:58.955Z,15.93
2022-09-23T15:56:27.262Z,15.89
2022-09-23T15:58:54.231Z,15.85
2022-09-23T16:01:24.118Z,15.75
2022-09-23T16:03:50.947Z,15.67
2022-09-23T16:06:18.021Z,15.63
2022-09-23T16:08:44.584Z,15.54
2022-09-23T16:11:27.002Z,15.49
2022-09-23T16:13:53.706Z,15.45
2022-09-23T16:16:28.449Z,15.43
2022-09-23T16:18:55.587Z,15.30
2022-09-23T16:21:25.694Z,15.18
2022-09-23T16:23:53.532Z,15.13
2022-09-23T16:26:22.087Z,15.03
2022-09-23T16:28:50.476Z,14.92
2022-09-23T16:31:17.909Z,14.88
2022-09-23T16:33:46.093Z,14.85
2022-09-23T16:36:21.861Z,14.82
2022-09-23T16:38:49.034Z,14.73
2022-09-23T16:41:15.887Z,14.63
2022-09-23T16:43:42.434Z,14.54
2022-09-23T16:46:12.427Z,14.45
2022-09-23T16:48:40.889Z,14.40
2022-09-23T16:51:13.304Z,14.31
2022-09-23T16:53:39.879Z,14.16
2022-09-23T16:56:10.965Z,14.09
2022-09-23T16:58:38.647Z,14.02
2022-09-23T17:01:25.998Z,13.95
2022-09-23T17:03:53.362Z,13.87
2022-09-23T17:06:20.366Z,13.81
2022-09-23T17:08:51.068Z,13.77
2022-09-23T17:11:17.920Z,13.70
2022-09-23T17:13:44.565Z,13.61
2022-09-23T17:16:21.399Z,13.57
2022-09-23T17:18:48.030Z,13.53
2022-09-23T17:21:14.667Z,13.44
2022-09-23T17:23:41.231Z,13.36
2022-09-23T17:26:10.020Z,13.30
2022-09-23T17:28:36.622Z,13.26
2022-09-23T17:31:04.796Z,13.19
2022-09-23T17:33:33.638Z,13.14
2022-09-23T17:36:00.311Z,13.10
2022-09-23T17:38:29.378Z,13.07
2022-09-23T17:40:57.676Z,13.03
2022-09-23T17:43:25.909Z,12.97
2022-09-23T17:45:54.636Z,12.92
2022-09-23T17:48:22.438Z,12.88
2022-09-23T17:51:02.139Z,12.82
2022-09-23T17:53:35.128Z,12.84
2022-09-23T17:56:04.706Z,12.81
2022-09-23T17:58:33.478Z,12.77
2022-09-23T18:01:01.108Z,12.73
2022-09-23T18:03:29.867Z,12.70
2022-09-23T18:06:09.978Z,12.71
2022-09-23T18:08:36.772Z,12.67
2022-09-23T18:11:15.311Z,12.60
2022-09-23T18:13:42.347Z,12.53
2022-09-23T18:16:09.065Z,12.50
2022-09-23T18:18:35.753Z,12.44
2022-09-23T18:21:04.279Z,12.43
2022-09-23T18:23:31.028Z,12.41
2022-09-23T18:25:57.700Z,12.31
2022-09-23T18:28:24.370Z,12.29
2022-09-23T18:30:55.030Z,12.21
2022-09-23T18:33:22.905Z,12.21
2022-09-23T18:35:52.409Z,12.19
2022-09-23T18:38:19.408Z,12.15
2022-09-23T18:40:51.034Z,12.13
2022-09-23T18:43:19.904Z,12.12
2022-09-23T18:45:58.294Z,12.09
2022-09-23T18:48:45.043Z,12.08
2022-09-23T18:51:13.834Z,12.07
2022-09-23T18:53:41.653Z,12.06
2022-09-23T18:56:10.720Z,12.06
2022-09-23T18:58:38.092Z,12.07
2022-09-23T19:01:07.252Z,12.07
2022-09-23T19:03:35.149Z,12.06
2022-09-23T19:06:09.349Z,12.05
2022-09-23T19:08:36.998Z,12.04
2022-09-23T19:11:06.505Z,12.00
2022-09-23T19:13:34.580Z,12.01
2022-09-23T19:16:22.923Z,12.00
2022-09-23T19:18:50.348Z,11.96
2022-09-23T19:21:20.393Z,11.92
2022-09-23T19:24:03.513Z,11.90
2022-09-23T19:26:35.333Z,11.86
2022-09-23T19:29:04.388Z,11.82
2022-09-23T19:31:34.324Z,11.76
2022-09-23T19:34:03.079Z,11.72
2022-09-23T19:36:34.895Z,11.67
2022-09-23T19:39:15.167Z,11.60
2022-09-23T19:41:41.726Z,11.55
2022-09-23T19:44:08.453Z,11.53
2022-09-23T19:46:37.212Z,11.56
2022-09-23T19:49:05.374Z,11.55
2022-09-23T19:51:34.099Z,11.50
2022-09-23T19:54:02.109Z,11.49
2022-09-23T19:56:29.836Z,11.46
2022-09-23T19:58:57.153Z,11.43
2022-09-23T20:01:25.169Z,11.41
2022-09-23T20:03:51.728Z,11.38
2022-09-23T20:06:18.353Z,11.35
2022-09-23T20:08:45.535Z,11.33
2022-09-23T20:11:15.022Z,11.29
2022-09-23T20:13:44.228Z,11.26
2022-09-23T20:16:13.640Z,11.22
2022-09-23T20:18:41.380Z,11.21
2022-09-23T20:21:14.213Z,11.24
2022-09-23T20:23:41.903Z,11.21
2022-09-23T20:26:27.676Z,11.16
2022-09-23T20:28:54.732Z,11.11
2022-09-23T20:31:22.988Z,11.04
2022-09-23T20:33:56.415Z,11.03
2022-09-23T20:36:22.998Z,11.05
2022-09-23T20:38:53.901Z,11.00
2022-09-23T20:41:21.154Z,10.93
2022-09-23T20:43:48.519Z,10.88
2022-09-23T20:46:16.378Z,10.85
2022-09-23T20:48:43.250Z,10.82
2022-09-23T20:51:10.237Z,10.80
2022-09-23T20:53:37.053Z,10.76
2022-09-23T20:56:05.949Z,10.74
2022-09-23T20:58:36.803Z,10.71
2022-09-23T21:01:11.067Z,10.72
2022-09-23T21:03:44.625Z,10.69
2022-09-23T21:06:13.927Z,10.64
2022-09-23T21:08:41.880Z,10.59
2022-09-23T21:11:12.140Z,10.55
2022-09-23T21:13:39.652Z,10.51
2022-09-23T21:16:10.755Z,10.45
2022-09-23T21:18:38.371Z,10.41
2022-09-23T21:21:06.021Z,10.35
2022-09-23T21:23:38.247Z,10.35
2022-09-23T21:26:11.062Z,10.29
2022-09-23T21:28:42.987Z,10.21
2022-09-23T21:31:34.637Z,10.19
2022-09-23T21:34:06.670Z,10.17
2022-09-23T21:36:37.388Z,10.17
2022-09-23T21:39:05.619Z,10.23
2022-09-23T21:41:33.198Z,10.32
2022-09-23T21:44:00.855Z,10.33
2022-09-23T21:46:28.515Z,10.21
2022-09-23T21:48:57.614Z,10.14
2022-09-23T21:51:30.199Z,10.21
2022-09-23T21:53:58.158Z,10.18
2022-09-23T21:56:27.103Z,10.17
2022-09-23T21:58:55.275Z,10.20
2022-09-23T22:01:24.355Z,10.20
2022-09-23T22:03:53.805Z,10.17
2022-09-23T22:06:23.253Z,10.19
2022-09-23T22:08:53.490Z,10.18
2022-09-23T22:11:41.697Z,10.23
2022-09-23T22:14:11.777Z,10.26
2022-09-23T22:16:39.543Z,10.25
2022-09-23T22:19:07.164Z,10.26
2022-09-23T22:21:36.625Z,10.33
2022-09-23T22:24:04.821Z,10.27
2022-09-23T22:26:33.962Z,10.22
2022-09-23T22:29:19.477Z,10.19
2022-09-23T22:32:04.567Z,10.19
2022-09-23T22:34:49.065Z,10.16
2022-09-23T22:37:18.944Z,10.18
2022-09-23T22:39:45.551Z,10.22
2022-09-23T22:42:15.599Z,10.17
2022-09-23T22:44:42.466Z,10.15
2022-09-23T22:47:10.192Z,10.13
2022-09-23T22:49:36.902Z,10.12
2022-09-23T22:52:07.015Z,10.11
2022-09-23T22:54:34.444Z,10.10
2022-09-23T22:57:03.468Z,10.10
2022-09-23T22:59:30.160Z,10.14
2022-09-23T23:01:57.241Z,10.12
2022-09-23T23:04:23.879Z,10.14
2022-09-23T23:06:51.208Z,10.11
2022-09-23T23:09:18.926Z,10.12
2022-09-23T23:11:45.832Z,10.04
2022-09-23T23:14:14.334Z,10.03
2022-09-23T23:16:40.960Z,10.09
2022-09-23T23:19:12.077Z,10.06
2022-09-23T23:21:40.589Z,10.01
2022-09-23T23:24:07.211Z,10.02
2022-09-23T23:26:34.486Z,9.98
2022-09-23T23:29:01.710Z,9.96
2022-09-23T23:31:29.174Z,9.90
2022-09-23T23:33:55.940Z,9.87
2022-09-23T23:36:23.370Z,9.95
2022-09-23T23:38:53.721Z,10.04
2022-09-23T23:41:22.783Z,10.01
2022-09-23T23:43:55.523Z,10.04
2022-09-23T23:46:25.393Z,10.08
2022-09-23T23:48:53.147Z,10.08
2022-09-23T23:51:20.013Z,10.08
2022-09-23T23:53:48.307Z,10.08
2022-09-23T23:56:18.237Z,10.01
2022-09-23T23:58:45.552Z,10.00
